Time;durP1;ratioP1;P1;durP2;ratioP2;P2;SDS_P1;SDS_P2;PMS_P1;PMS_P2;Temp;Humidity;BMP_temperature;BMP_pressure;BME280_temperature;BME280_humidity;BME280_pressure;Samples;Min_cycle;Max_cycle;Signal;HPM_P1;HPM_P2
2022/09/22 00:01:08;;;;;;;10.13;7.97;;;;;;;;;;5040683;28;20423;-82
2022/09/22 00:03:35;;;;;;;9.40;7.40;;;;;;;;;;5044036;28;20899;-83
2022/09/22 00:06:03;;;;;;;8.02;7.20;;;;;;;;;;5042832;28;20421;-84
2022/09/22 00:08:31;;;;;;;10.93;7.78;;;;;;;;;;5042764;28;20423;-83
2022/09/22 00:11:02;;;;;;;8.35;7.10;;;;;;;;;;5041155;28;20430;-83
2022/09/22 00:13:30;;;;;;;9.18;7.95;;;;;;;;;;5041049;28;20420;-83
2022/09/22 00:15:56;;;;;;;8.18;7.28;;;;;;;;;;5040291;28;20426;-82
2022/09/22 00:18:23;;;;;;;10.25;7.05;;;;;;;;;;5041345;28;20421;-83
2022/09/22 00:20:50;;;;;;;8.48;7.68;;;;;;;;;;5042052;28;20425;-84
2022/09/22 00:23:16;;;;;;;7.63;6.83;;;;;;;;;;5043663;28;20418;-83
2022/09/22 00:25:43;;;;;;;9.38;7.20;;;;;;;;;;5042379;28;20429;-83
2022/09/22 00:28:10;;;;;;;8.90;7.43;;;;;;;;;;5040995;28;21318;-83
2022/09/22 00:30:41;;;;;;;7.40;6.30;;;;;;;;;;5043991;28;20492;-83
2022/09/22 00:33:08;;;;;;;7.13;6.35;;;;;;;;;;5056831;28;20492;-83
2022/09/22 00:35:36;;;;;;;7.72;6.20;;;;;;;;;;5043034;28;20433;-82
2022/09/22 00:38:04;;;;;;;6.35;5.70;;;;;;;;;;5040859;28;20429;-83
2022/09/22 00:40:30;;;;;;;7.70;6.13;;;;;;;;;;5042295;28;20516;-83
2022/09/22 00:43:11;;;;;;;6.13;5.53;;;;;;;;;;5039983;28;20424;-83
2022/09/22 00:45:37;;;;;;;6.10;5.28;;;;;;;;;;5042585;28;20446;-83
2022/09/22 00:48:06;;;;;;;7.03;5.35;;;;;;;;;;5040504;28;20433;-84
2022/09/22 00:50:32;;;;;;;6.75;5.10;;;;;;;;;;5042747;28;20427;-84
2022/09/22 00:53:02;;;;;;;6.80;5.50;;;;;;;;;;5039385;28;20942;-83
2022/09/22 00:55:31;;;;;;;5.97;5.00;;;;;;;;;;5041513;28;21001;-83
2022/09/22 00:57:59;;;;;;;7.53;5.30;;;;;;;;;;5040618;28;20442;-83
2022/09/22 01:00:26;;;;;;;6.32;5.20;;;;;;;;;;5040866;28;20477;-83
2022/09/22 01:02:54;;;;;;;7.10;5.00;;;;;;;;;;5041323;28;20789;-82
2022/09/22 01:05:23;;;;;;;6.45;5.10;;;;;;;;;;5040487;28;20912;-83
2022/09/22 01:07:50;;;;;;;5.90;5.00;;;;;;;;;;5039272;28;20439;-83
2022/09/22 01:10:17;;;;;;;5.87;4.70;;;;;;;;;;5042908;28;20511;-83
2022/09/22 01:12:50;;;;;;;7.97;4.90;;;;;;;;;;5041491;28;20425;-83
2022/09/22 01:15:21;;;;;;;5.55;4.75;;;;;;;;;;5040849;28;20434;-83
2022/09/22 01:17:54;;;;;;;5.25;4.75;;;;;;;;;;5040271;28;21025;-83
2022/09/22 01:20:48;;;;;;;4.93;4.43;;;;;;;;;;5042238;28;20440;-83
2022/09/22 01:23:31;;;;;;;5.57;5.00;;;;;;;;;;5004721;28;20506;-83
2022/09/22 01:26:09;;;;;;;6.13;4.50;;;;;;;;;;5040948;28;20530;-83
2022/09/22 01:28:42;;;;;;;6.57;4.80;;;;;;;;;;5041717;28;21470;-83
2022/09/22 01:31:13;;;;;;;5.20;4.25;;;;;;;;;;5039661;28;20443;-83
2022/09/22 01:33:42;;;;;;;5.60;4.63;;;;;;;;;;5039363;28;20937;-83
2022/09/22 01:36:13;;;;;;;5.35;4.40;;;;;;;;;;5041351;28;20879;-83
2022/09/22 01:38:44;;;;;;;6.60;4.57;;;;;;;;;;5040708;28;20434;-83
2022/09/22 01:41:15;;;;;;;6.00;4.70;;;;;;;;;;5044210;28;20430;-83
2022/09/22 01:43:46;;;;;;;5.07;4.35;;;;;;;;;;5041956;28;20421;-83
2022/09/22 01:46:17;;;;;;;6.00;3.92;;;;;;;;;;5044655;28;20456;-83
2022/09/22 01:48:47;;;;;;;7.65;4.20;;;;;;;;;;5045008;28;20780;-83
2022/09/22 01:51:15;;;;;;;5.68;4.45;;;;;;;;;;5044628;28;20440;-84
2022/09/22 01:53:46;;;;;;;5.43;4.25;;;;;;;;;;5043957;28;20431;-83
2022/09/22 01:56:14;;;;;;;4.60;4.10;;;;;;;;;;5043696;28;20518;-83
2022/09/22 01:58:42;;;;;;;5.38;4.50;;;;;;;;;;5048169;28;20797;-83
2022/09/22 02:01:10;;;;;;;4.35;3.65;;;;;;;;;;5045446;28;20426;-83
2022/09/22 02:03:40;;;;;;;4.45;3.80;;;;;;;;;;5045428;28;20425;-83
2022/09/22 02:06:09;;;;;;;5.38;4.60;;;;;;;;;;5046781;28;21016;-83
2022/09/22 02:08:37;;;;;;;4.72;4.13;;;;;;;;;;5043258;28;20434;-83
2022/09/22 02:11:08;;;;;;;6.15;4.53;;;;;;;;;;5044530;28;20426;-83
2022/09/22 02:13:35;;;;;;;7.47;4.40;;;;;;;;;;5044973;28;20433;-83
2022/09/22 02:16:02;;;;;;;5.00;4.60;;;;;;;;;;5044218;28;20445;-84
2022/09/22 02:18:31;;;;;;;7.15;4.57;;;;;;;;;;5044275;28;20490;-83
2022/09/22 02:20:59;;;;;;;5.10;4.60;;;;;;;;;;5046328;28;20911;-83
2022/09/22 02:23:26;;;;;;;7.40;4.60;;;;;;;;;;5044349;28;20419;-83
2022/09/22 02:25:53;;;;;;;5.40;4.17;;;;;;;;;;5046955;28;20435;-83
2022/09/22 02:28:21;;;;;;;4.60;4.07;;;;;;;;;;5041066;28;20431;-83
2022/09/22 02:30:49;;;;;;;5.18;4.25;;;;;;;;;;5043963;28;20426;-83
2022/09/22 02:33:15;;;;;;;6.53;4.35;;;;;;;;;;5042994;28;20419;-83
2022/09/22 02:35:45;;;;;;;5.88;4.72;;;;;;;;;;5043739;28;20434;-83
2022/09/22 02:38:14;;;;;;;6.23;4.17;;;;;;;;;;5043856;28;20427;-83
2022/09/22 02:40:45;;;;;;;4.63;4.10;;;;;;;;;;5044098;28;20770;-83
2022/09/22 02:43:14;;;;;;;5.32;3.95;;;;;;;;;;5043341;28;20415;-83
2022/09/22 02:45:45;;;;;;;7.10;4.40;;;;;;;;;;5044364;28;20508;-84
2022/09/22 02:48:14;;;;;;;7.22;4.70;;;;;;;;;;5043242;28;20941;-83
2022/09/22 02:50:42;;;;;;;5.30;4.80;;;;;;;;;;5043401;28;20429;-83
2022/09/22 02:53:11;;;;;;;6.82;4.78;;;;;;;;;;5043450;28;20429;-84
2022/09/22 02:55:39;;;;;;;5.87;4.40;;;;;;;;;;5043737;28;20444;-82
2022/09/22 02:58:05;;;;;;;5.88;5.28;;;;;;;;;;5044519;28;20441;-83
2022/09/22 03:00:32;;;;;;;6.10;4.80;;;;;;;;;;5043732;28;20410;-83
2022/09/22 03:02:58;;;;;;;5.68;4.80;;;;;;;;;;5042621;28;20421;-83
2022/09/22 03:05:25;;;;;;;6.63;5.00;;;;;;;;;;5043174;28;20441;-83
2022/09/22 03:07:51;;;;;;;7.65;5.57;;;;;;;;;;5043213;28;20970;-83
2022/09/22 03:10:18;;;;;;;7.15;5.20;;;;;;;;;;5043181;28;20912;-84
2022/09/22 03:12:46;;;;;;;9.00;5.47;;;;;;;;;;5042820;28;20430;-83
2022/09/22 03:15:13;;;;;;;6.60;5.00;;;;;;;;;;5043527;28;20425;-84
2022/09/22 03:17:41;;;;;;;7.00;5.00;;;;;;;;;;5043344;28;20429;-83
2022/09/22 03:20:14;;;;;;;7.45;5.35;;;;;;;;;;5045765;28;20440;-83
2022/09/22 03:22:40;;;;;;;6.60;4.80;;;;;;;;;;5043280;28;20429;-83
2022/09/22 03:25:08;;;;;;;5.40;4.90;;;;;;;;;;5046047;28;20421;-82
2022/09/22 03:27:36;;;;;;;6.25;4.97;;;;;;;;;;5043189;28;20419;-83
2022/09/22 03:30:05;;;;;;;5.32;4.82;;;;;;;;;;5044514;28;20519;-83
2022/09/22 03:32:32;;;;;;;6.68;4.80;;;;;;;;;;5041798;28;20936;-83
2022/09/22 03:34:58;;;;;;;7.53;5.25;;;;;;;;;;5043354;28;20449;-83
2022/09/22 03:37:25;;;;;;;6.70;4.80;;;;;;;;;;5042240;28;20435;-83
2022/09/22 03:39:51;;;;;;;6.63;4.97;;;;;;;;;;5043307;28;20477;-83
2022/09/22 03:42:18;;;;;;;5.70;5.10;;;;;;;;;;5041943;28;20976;-83
2022/09/22 03:44:44;;;;;;;8.23;6.10;;;;;;;;;;5043671;28;20425;-83
2022/09/22 03:47:12;;;;;;;8.15;5.88;;;;;;;;;;5041661;28;20929;-84
2022/09/22 03:49:39;;;;;;;6.80;5.50;;;;;;;;;;5043263;28;20442;-83
2022/09/22 03:52:05;;;;;;;8.20;6.32;;;;;;;;;;5042396;28;20418;-84
2022/09/22 03:54:32;;;;;;;6.30;5.70;;;;;;;;;;5043295;28;20429;-83
2022/09/22 03:56:59;;;;;;;7.05;6.30;;;;;;;;;;5041946;28;20419;-84
2022/09/22 03:59:25;;;;;;;7.38;6.63;;;;;;;;;;5043093;28;20482;-83
2022/09/22 04:01:51;;;;;;;7.40;6.70;;;;;;;;;;5039342;28;20906;-83
2022/09/22 04:04:19;;;;;;;7.50;6.80;;;;;;;;;;5043498;28;20411;-83
2022/09/22 04:06:46;;;;;;;8.70;6.90;;;;;;;;;;5041397;28;20895;-83
2022/09/22 04:09:16;;;;;;;8.30;6.95;;;;;;;;;;5041003;28;20808;-83
2022/09/22 04:11:42;;;;;;;8.57;7.27;;;;;;;;;;5040477;28;20796;-83
2022/09/22 04:14:09;;;;;;;8.80;6.80;;;;;;;;;;5043368;28;21117;-83
2022/09/22 04:16:35;;;;;;;7.50;6.78;;;;;;;;;;5040835;28;20431;-83
2022/09/22 04:19:03;;;;;;;9.35;7.18;;;;;;;;;;5042083;28;20489;-83
2022/09/22 04:21:31;;;;;;;8.50;6.60;;;;;;;;;;5041399;28;20462;-83
2022/09/22 04:23:58;;;;;;;8.60;6.53;;;;;;;;;;5044066;28;20776;-83
2022/09/22 04:26:24;;;;;;;7.80;6.65;;;;;;;;;;5041259;28;20419;-83
2022/09/22 04:28:51;;;;;;;10.13;6.68;;;;;;;;;;5042928;28;20427;-83
2022/09/22 04:31:18;;;;;;;8.40;6.85;;;;;;;;;;5041224;28;20461;-83
2022/09/22 04:33:44;;;;;;;8.50;6.63;;;;;;;;;;5040145;28;20432;-83
2022/09/22 04:36:11;;;;;;;10.40;7.80;;;;;;;;;;5040335;28;20438;-84
2022/09/22 04:38:39;;;;;;;8.48;7.57;;;;;;;;;;5040638;28;20490;-83
2022/09/22 04:41:06;;;;;;;9.35;7.28;;;;;;;;;;5040979;28;20439;-83
2022/09/22 04:43:32;;;;;;;10.50;7.33;;;;;;;;;;5042196;28;20419;-83
2022/09/22 04:45:59;;;;;;;11.10;8.23;;;;;;;;;;5041176;28;20445;-83
2022/09/22 04:48:25;;;;;;;9.02;8.13;;;;;;;;;;5041873;28;20421;-83
2022/09/22 04:50:52;;;;;;;10.23;8.70;;;;;;;;;;5039323;28;20454;-83
2022/09/22 04:53:18;;;;;;;10.05;8.27;;;;;;;;;;5041556;28;20420;-83
2022/09/22 04:55:46;;;;;;;9.75;8.43;;;;;;;;;;5039387;28;20440;-83
2022/09/22 04:58:13;;;;;;;9.68;7.75;;;;;;;;;;5039930;28;20499;-83
2022/09/22 05:00:40;;;;;;;9.57;7.45;;;;;;;;;;5041381;28;20489;-83
2022/09/22 05:03:09;;;;;;;11.27;8.57;;;;;;;;;;5039653;28;20436;-83
2022/09/22 05:05:36;;;;;;;13.10;7.50;;;;;;;;;;5043371;28;20425;-83
2022/09/22 05:08:02;;;;;;;9.32;7.75;;;;;;;;;;5042134;28;20435;-83
2022/09/22 05:10:31;;;;;;;11.63;8.38;;;;;;;;;;5040447;28;20434;-83
2022/09/22 05:12:58;;;;;;;9.75;7.82;;;;;;;;;;5041020;28;20422;-83
2022/09/22 05:15:25;;;;;;;10.43;8.35;;;;;;;;;;5047824;28;20475;-83
2022/09/22 05:17:52;;;;;;;9.68;8.65;;;;;;;;;;5043226;28;20425;-83
2022/09/22 05:20:19;;;;;;;10.82;8.20;;;;;;;;;;5045470;28;20444;-83
2022/09/22 05:22:46;;;;;;;10.20;7.80;;;;;;;;;;5043788;28;20434;-83
2022/09/22 05:25:14;;;;;;;12.05;7.88;;;;;;;;;;5040736;28;20423;-83
2022/09/22 05:27:43;;;;;;;8.60;7.70;;;;;;;;;;5044542;28;20423;-83
2022/09/22 05:30:12;;;;;;;8.80;7.90;;;;;;;;;;5044845;28;20459;-83
2022/09/22 05:32:38;;;;;;;9.60;7.80;;;;;;;;;;5045117;28;20413;-83
2022/09/22 05:35:06;;;;;;;9.75;8.75;;;;;;;;;;5046837;28;20439;-83
2022/09/22 05:37:32;;;;;;;10.15;9.02;;;;;;;;;;5043791;28;20435;-83
2022/09/22 05:39:59;;;;;;;10.13;8.60;;;;;;;;;;5043805;28;20429;-83
2022/09/22 05:42:25;;;;;;;10.95;9.07;;;;;;;;;;5042194;28;20433;-82
2022/09/22 05:44:51;;;;;;;12.07;8.40;;;;;;;;;;5045248;28;20425;-83
2022/09/22 05:47:19;;;;;;;10.98;9.10;;;;;;;;;;5043121;28;20435;-82
2022/09/22 05:49:46;;;;;;;10.95;8.82;;;;;;;;;;5044627;28;20435;-83
2022/09/22 05:52:12;;;;;;;10.85;9.13;;;;;;;;;;5044568;28;20417;-83
2022/09/22 05:54:39;;;;;;;13.85;9.98;;;;;;;;;;5043402;28;20429;-82
2022/09/22 05:57:05;;;;;;;12.97;9.93;;;;;;;;;;5043544;28;20847;-82
2022/09/22 05:59:31;;;;;;;10.45;9.20;;;;;;;;;;5041703;28;20430;-83
2022/09/22 06:01:58;;;;;;;10.85;9.75;;;;;;;;;;5043301;28;20423;-83
2022/09/22 06:04:26;;;;;;;10.50;9.33;;;;;;;;;;5044292;28;20532;-83
2022/09/22 06:06:52;;;;;;;11.50;9.45;;;;;;;;;;5043783;28;20926;-83
2022/09/22 06:09:19;;;;;;;11.90;9.90;;;;;;;;;;5043452;28;20408;-83
2022/09/22 06:11:45;;;;;;;16.33;9.68;;;;;;;;;;5042834;28;20409;-83
2022/09/22 06:14:12;;;;;;;10.80;9.70;;;;;;;;;;5042184;28;20429;-82
2022/09/22 06:16:38;;;;;;;10.43;9.10;;;;;;;;;;5042894;28;20424;-83
2022/09/22 06:19:05;;;;;;;14.00;10.50;;;;;;;;;;5044187;28;20456;-83
2022/09/22 06:21:33;;;;;;;11.55;9.93;;;;;;;;;;5044258;28;20425;-83
2022/09/22 06:24:00;;;;;;;11.93;9.88;;;;;;;;;;5042302;28;20806;-83
2022/09/22 06:26:26;;;;;;;13.57;10.70;;;;;;;;;;5043703;28;20431;-82
2022/09/22 06:28:53;;;;;;;13.55;11.60;;;;;;;;;;5047140;28;20426;-83
2022/09/22 06:31:20;;;;;;;12.40;11.00;;;;;;;;;;5043013;28;20807;-82
2022/09/22 06:33:47;;;;;;;11.73;9.93;;;;;;;;;;5041811;28;20417;-83
2022/09/22 06:36:22;;;;;;;13.35;10.15;;;;;;;;;;5045956;28;20493;-83
2022/09/22 06:38:51;;;;;;;13.30;11.83;;;;;;;;;;5044206;28;20412;-83
2022/09/22 06:41:18;;;;;;;15.75;12.45;;;;;;;;;;5042541;28;20494;-82
2022/09/22 06:43:46;;;;;;;15.13;12.63;;;;;;;;;;5044212;28;20927;-83
2022/09/22 06:46:13;;;;;;;16.13;12.98;;;;;;;;;;5040512;28;20439;-83
2022/09/22 06:48:39;;;;;;;16.17;14.10;;;;;;;;;;5044756;28;20428;-83
2022/09/22 06:51:06;;;;;;;18.53;15.20;;;;;;;;;;5045857;28;20435;-82
2022/09/22 06:53:32;;;;;;;19.58;17.00;;;;;;;;;;5043745;28;20426;-84
2022/09/22 06:56:04;;;;;;;21.00;17.75;;;;;;;;;;5043965;28;20431;-83
2022/09/22 06:58:31;;;;;;;17.20;15.40;;;;;;;;;;5044465;28;20907;-83
2022/09/22 07:01:02;;;;;;;19.27;16.80;;;;;;;;;;5042179;28;20446;-83
2022/09/22 07:03:29;;;;;;;27.15;21.48;;;;;;;;;;5044154;28;20429;-83
2022/09/22 07:05:59;;;;;;;21.92;18.63;;;;;;;;;;5043949;28;20508;-82
2022/09/22 07:08:26;;;;;;;19.50;17.50;;;;;;;;;;5042530;28;20501;-83
2022/09/22 07:10:54;;;;;;;22.50;20.00;;;;;;;;;;5041594;28;20423;-83
2022/09/22 07:13:22;;;;;;;21.77;18.33;;;;;;;;;;5041463;28;20509;-83
2022/09/22 07:15:48;;;;;;;21.00;18.77;;;;;;;;;;5045941;28;20521;-82
2022/09/22 07:18:15;;;;;;;23.00;18.33;;;;;;;;;;5043893;28;20441;-83
2022/09/22 07:20:43;;;;;;;22.52;19.80;;;;;;;;;;5044004;28;20433;-83
2022/09/22 07:23:13;;;;;;;21.20;19.00;;;;;;;;;;5044620;28;20437;-82
2022/09/22 07:25:40;;;;;;;23.93;18.23;;;;;;;;;;5044862;28;20506;-83
2022/09/22 07:28:12;;;;;;;17.38;15.55;;;;;;;;;;5045715;28;20419;-83
2022/09/22 07:30:40;;;;;;;17.65;14.90;;;;;;;;;;5045256;28;20466;-82
2022/09/22 07:33:07;;;;;;;17.33;14.10;;;;;;;;;;5043641;28;20427;-83
2022/09/22 07:35:36;;;;;;;16.37;12.77;;;;;;;;;;5044670;28;20436;-82
2022/09/22 07:38:03;;;;;;;15.18;12.18;;;;;;;;;;5043265;28;20508;-83
2022/09/22 07:40:30;;;;;;;16.77;11.90;;;;;;;;;;5044991;28;20475;-83
2022/09/22 07:42:56;;;;;;;13.20;10.27;;;;;;;;;;5043858;28;20426;-83
2022/09/22 07:45:23;;;;;;;11.90;8.75;;;;;;;;;;5043233;28;20434;-82
2022/09/22 07:50:34;;;;;;;15.90;9.60;;;;;;;;;;5044744;28;20524;-83
2022/09/22 07:53:02;;;;;;;11.18;8.10;;;;;;;;;;5041622;28;20416;-83
2022/09/22 07:55:29;;;;;;;10.68;8.52;;;;;;;;;;5043115;28;20463;-83
2022/09/22 07:57:56;;;;;;;12.70;8.13;;;;;;;;;;5042069;28;20463;-83
2022/09/22 08:00:23;;;;;;;10.93;7.10;;;;;;;;;;5042788;28;20427;-83
2022/09/22 08:02:56;;;;;;;13.83;7.23;;;;;;;;;;5041375;28;20508;-86
2022/09/22 08:05:23;;;;;;;7.72;5.65;;;;;;;;;;5041580;28;20429;-83
2022/09/22 08:07:50;;;;;;;8.40;6.28;;;;;;;;;;5043436;28;20420;-83
2022/09/22 08:10:17;;;;;;;9.23;5.70;;;;;;;;;;5041427;28;20425;-83
2022/09/22 08:12:44;;;;;;;10.80;5.15;;;;;;;;;;5040778;28;20428;-83
2022/09/22 08:15:11;;;;;;;9.43;5.18;;;;;;;;;;5044809;28;20425;-83
2022/09/22 08:17:38;;;;;;;9.25;5.70;;;;;;;;;;5040578;28;20418;-83
2022/09/22 08:20:08;;;;;;;7.80;5.18;;;;;;;;;;5043757;28;20433;-82
2022/09/22 08:22:34;;;;;;;13.30;5.60;;;;;;;;;;5039187;28;20421;-83
2022/09/22 08:25:01;;;;;;;10.02;6.10;;;;;;;;;;5058495;28;20479;-83
2022/09/22 08:27:28;;;;;;;9.40;4.40;;;;;;;;;;5040752;28;20427;-83
2022/09/22 08:29:55;;;;;;;5.55;4.10;;;;;;;;;;5041257;28;20932;-83
2022/09/22 08:32:25;;;;;;;7.00;4.33;;;;;;;;;;5042232;28;20518;-83
2022/09/22 08:34:54;;;;;;;8.35;4.78;;;;;;;;;;5042403;28;20963;-83
2022/09/22 08:37:23;;;;;;;8.95;4.80;;;;;;;;;;5040825;28;20929;-81
2022/09/22 08:39:49;;;;;;;9.67;4.27;;;;;;;;;;5041216;28;20930;-83
2022/09/22 08:42:19;;;;;;;4.72;3.63;;;;;;;;;;5042370;28;20426;-83
2022/09/22 08:44:49;;;;;;;6.15;3.50;;;;;;;;;;5039934;28;20411;-84
2022/09/22 08:51:50;;;;;;;5.22;4.10;;;;;;;;;;5042213;28;20425;-84
2022/09/22 08:52:59;;;;;;;5.30;2.92;;;;;;;;;;5042637;28;20418;-82
2022/09/22 08:55:26;;;;;;;6.38;3.20;;;;;;;;;;5056003;28;20427;-82
2022/09/22 08:57:59;;;;;;;7.15;3.55;;;;;;;;;;5041112;28;20423;-82
2022/09/22 09:00:30;;;;;;;6.28;3.30;;;;;;;;;;5040545;28;20436;-81
2022/09/22 09:03:04;;;;;;;7.50;3.30;;;;;;;;;;5041842;28;20953;-82
2022/09/22 09:05:59;;;;;;;5.68;3.47;;;;;;;;;;5041978;28;20438;-81
2022/09/22 09:08:32;;;;;;;9.60;3.30;;;;;;;;;;5040556;28;20422;-83
2022/09/22 09:11:05;;;;;;;6.03;2.97;;;;;;;;;;5040146;28;20830;-84
2022/09/22 09:13:39;;;;;;;5.03;3.67;;;;;;;;;;5041263;28;20423;-82
2022/09/22 09:16:13;;;;;;;8.00;3.67;;;;;;;;;;5041542;28;20455;-83
2022/09/22 09:18:41;;;;;;;5.65;3.72;;;;;;;;;;5039800;28;20417;-84
2022/09/22 09:21:10;;;;;;;5.35;3.30;;;;;;;;;;5039949;28;20429;-83
2022/09/22 09:23:44;;;;;;;7.82;3.60;;;;;;;;;;5039150;28;20924;-82
2022/09/22 09:26:11;;;;;;;5.38;3.75;;;;;;;;;;5040258;28;20417;-81
2022/09/22 09:28:41;;;;;;;6.47;3.93;;;;;;;;;;5041928;28;20415;-81
2022/09/22 09:31:11;;;;;;;6.68;3.95;;;;;;;;;;5042572;28;20508;-83
2022/09/22 09:33:43;;;;;;;10.00;4.40;;;;;;;;;;5040294;28;20446;-82
2022/09/22 09:36:12;;;;;;;7.25;3.70;;;;;;;;;;5041838;28;20438;-82
2022/09/22 09:38:43;;;;;;;9.20;4.55;;;;;;;;;;5038552;28;20429;-82
2022/09/22 09:41:13;;;;;;;8.15;3.97;;;;;;;;;;5041559;28;20910;-82
2022/09/22 09:43:41;;;;;;;6.55;3.50;;;;;;;;;;5037677;28;20411;-83
2022/09/22 09:46:12;;;;;;;7.30;3.70;;;;;;;;;;5040826;28;20425;-83
2022/09/22 09:48:40;;;;;;;6.15;3.40;;;;;;;;;;5041804;28;20424;-81
2022/09/22 09:51:10;;;;;;;7.20;3.30;;;;;;;;;;5039990;28;20808;-82
2022/09/22 09:53:38;;;;;;;6.80;3.50;;;;;;;;;;5040103;28;20496;-83
2022/09/22 09:56:15;;;;;;;5.53;3.10;;;;;;;;;;5040771;28;20437;-82
2022/09/22 10:01:40;;;;;;;7.75;3.33;;;;;;;;;;5047593;28;20434;-81
2022/09/22 10:04:17;;;;;;;6.07;3.13;;;;;;;;;;5066828;28;20441;-82
2022/09/22 10:06:44;;;;;;;9.32;2.97;;;;;;;;;;5060554;28;20471;-81
2022/09/22 10:09:11;;;;;;;6.57;2.92;;;;;;;;;;5045167;28;20429;-82
2022/09/22 10:11:39;;;;;;;5.07;2.30;;;;;;;;;;5044699;28;20434;-82
2022/09/22 10:14:16;;;;;;;5.38;2.83;;;;;;;;;;5045500;28;20427;-83
2022/09/22 10:16:50;;;;;;;4.95;2.50;;;;;;;;;;5046257;28;20405;-82
2022/09/22 10:19:21;;;;;;;6.05;2.10;;;;;;;;;;5042528;28;20417;-81
2022/09/22 10:21:48;;;;;;;5.80;2.20;;;;;;;;;;5046490;28;20421;-82
2022/09/22 10:24:29;;;;;;;8.05;1.80;;;;;;;;;;5045516;28;20896;-83
2022/09/22 10:26:57;;;;;;;6.82;2.38;;;;;;;;;;5043865;28;20415;-82
2022/09/22 10:29:24;;;;;;;5.40;2.22;;;;;;;;;;5041817;28;20406;-82
2022/09/22 10:32:09;;;;;;;6.37;1.90;;;;;;;;;;5043603;28;20881;-82
2022/09/22 10:34:37;;;;;;;5.03;2.00;;;;;;;;;;5032863;28;20427;-82
2022/09/22 10:37:06;;;;;;;4.00;2.17;;;;;;;;;;5041008;28;20778;-81
2022/09/22 10:39:36;;;;;;;5.30;2.30;;;;;;;;;;5042947;28;20459;-82
2022/09/22 10:42:06;;;;;;;5.07;1.98;;;;;;;;;;5040522;28;20427;-82
2022/09/22 10:44:33;;;;;;;6.15;2.30;;;;;;;;;;5046324;28;20417;-83
2022/09/22 10:47:14;;;;;;;7.35;2.00;;;;;;;;;;5057201;28;20412;-82
2022/09/22 10:49:53;;;;;;;5.10;1.40;;;;;;;;;;5042262;28;20437;-83
2022/09/22 10:52:21;;;;;;;5.25;1.60;;;;;;;;;;5043303;28;20425;-81
2022/09/22 10:55:11;;;;;;;5.18;1.90;;;;;;;;;;5041795;28;20897;-81
2022/09/22 10:57:47;;;;;;;5.05;1.70;;;;;;;;;;5043218;28;20423;-82
2022/09/22 11:00:16;;;;;;;3.80;1.88;;;;;;;;;;5044192;28;20426;-82
2022/09/22 11:02:54;;;;;;;5.75;1.65;;;;;;;;;;5042431;28;20421;-82
2022/09/22 11:12:15;;;;;;;4.35;1.52;;;;;;;;;;5043560;28;20423;-83
2022/09/22 11:13:48;;;;;;;6.05;1.70;;;;;;;;;;5043159;28;20418;-82
2022/09/22 11:16:22;;;;;;;2.92;1.70;;;;;;;;;;5043378;28;20479;-84
2022/09/22 11:18:59;;;;;;;5.05;1.58;;;;;;;;;;5063498;28;20428;-82
2022/09/22 11:21:30;;;;;;;4.75;1.50;;;;;;;;;;5063524;28;20427;-82
2022/09/22 11:24:08;;;;;;;5.38;1.77;;;;;;;;;;5065382;28;20464;-82
2022/09/22 11:26:43;;;;;;;4.55;1.73;;;;;;;;;;5060096;28;20504;-82
2022/09/22 11:29:24;;;;;;;3.10;1.73;;;;;;;;;;5065726;28;20424;-82
2022/09/22 11:31:55;;;;;;;4.15;1.83;;;;;;;;;;5057264;28;20428;-84
2022/09/22 11:34:30;;;;;;;4.97;1.73;;;;;;;;;;5042245;28;20433;-81
2022/09/22 11:37:24;;;;;;;4.20;1.53;;;;;;;;;;5041941;28;20419;-82
2022/09/22 11:39:55;;;;;;;4.97;1.60;;;;;;;;;;5043018;28;20473;-81
2022/09/22 11:42:27;;;;;;;5.70;1.63;;;;;;;;;;5040498;28;20421;-83
2022/09/22 11:45:03;;;;;;;4.22;1.88;;;;;;;;;;5044718;28;20435;-82
2022/09/22 11:47:40;;;;;;;4.60;1.70;;;;;;;;;;5042703;28;20490;-81
2022/09/22 11:50:17;;;;;;;4.70;1.80;;;;;;;;;;5039472;28;20884;-83
2022/09/22 11:52:51;;;;;;;4.80;1.60;;;;;;;;;;5043267;28;20421;-83
2022/09/22 11:55:23;;;;;;;4.10;1.73;;;;;;;;;;5043353;28;20983;-82
2022/09/22 11:57:51;;;;;;;4.68;1.55;;;;;;;;;;5041636;28;20433;-81
2022/09/22 12:00:21;;;;;;;3.30;1.60;;;;;;;;;;5044190;28;20461;-82
2022/09/22 12:02:50;;;;;;;3.90;1.60;;;;;;;;;;5042225;28;20792;-83
2022/09/22 12:05:19;;;;;;;2.15;1.20;;;;;;;;;;5043642;28;20884;-82
2022/09/22 12:07:48;;;;;;;4.40;1.60;;;;;;;;;;5043650;28;20507;-80
2022/09/22 12:10:16;;;;;;;6.07;1.50;;;;;;;;;;5043247;28;20415;-83
2022/09/22 12:12:47;;;;;;;2.35;1.70;;;;;;;;;;5039333;28;20983;-82
2022/09/22 12:15:20;;;;;;;3.67;1.60;;;;;;;;;;5041828;28;20798;-82
2022/09/22 12:17:51;;;;;;;3.60;1.70;;;;;;;;;;5042292;28;20415;-81
2022/09/22 12:20:28;;;;;;;4.30;2.20;;;;;;;;;;5042890;28;20441;-82
2022/09/22 12:23:05;;;;;;;5.13;1.60;;;;;;;;;;5045723;28;20416;-81
2022/09/22 12:25:45;;;;;;;2.85;1.70;;;;;;;;;;5043294;28;20443;-82
2022/09/22 12:28:15;;;;;;;3.50;1.40;;;;;;;;;;5042308;28;20423;-83
2022/09/22 12:30:51;;;;;;;4.28;1.45;;;;;;;;;;5043133;28;20587;-82
2022/09/22 12:33:21;;;;;;;3.40;1.70;;;;;;;;;;5041837;28;20505;-82
2022/09/22 12:35:52;;;;;;;4.18;1.80;;;;;;;;;;5041608;28;20456;-82
2022/09/22 12:38:21;;;;;;;3.50;1.90;;;;;;;;;;5040883;28;20453;-83
2022/09/22 12:40:48;;;;;;;2.47;1.43;;;;;;;;;;5043211;28;20460;-81
2022/09/22 12:43:18;;;;;;;5.05;1.50;;;;;;;;;;5042059;28;20451;-82
2022/09/22 12:45:44;;;;;;;5.85;1.70;;;;;;;;;;5043374;28;20476;-82
2022/09/22 12:48:15;;;;;;;2.10;1.52;;;;;;;;;;5038174;28;20426;-81
2022/09/22 12:50:43;;;;;;;2.67;1.33;;;;;;;;;;5042615;28;20488;-82
2022/09/22 12:53:11;;;;;;;4.93;1.35;;;;;;;;;;5038940;28;20417;-82
2022/09/22 12:55:38;;;;;;;2.60;1.50;;;;;;;;;;5040876;28;20834;-82
2022/09/22 12:58:20;;;;;;;4.00;1.40;;;;;;;;;;5043011;28;20417;-81
2022/09/22 13:00:47;;;;;;;2.42;1.35;;;;;;;;;;5044016;28;20431;-82
2022/09/22 13:03:31;;;;;;;3.58;1.63;;;;;;;;;;5042680;28;20425;-82
2022/09/22 13:06:02;;;;;;;4.20;1.80;;;;;;;;;;5040882;28;20445;-81
2022/09/22 13:08:43;;;;;;;2.97;1.80;;;;;;;;;;5044597;28;20429;-81
2022/09/22 13:11:10;;;;;;;3.72;1.75;;;;;;;;;;5041973;28;20434;-81
2022/09/22 13:13:38;;;;;;;5.45;1.90;;;;;;;;;;5043281;28;20931;-83
2022/09/22 13:16:25;;;;;;;5.30;1.70;;;;;;;;;;5042832;28;20432;-83
2022/09/22 13:18:58;;;;;;;3.55;1.50;;;;;;;;;;5041946;28;20433;-82
2022/09/22 13:21:27;;;;;;;4.03;1.70;;;;;;;;;;5042783;28;20458;-82
2022/09/22 13:23:54;;;;;;;3.35;1.60;;;;;;;;;;5044187;28;21017;-82
2022/09/22 13:26:22;;;;;;;2.83;1.42;;;;;;;;;;5042863;28;20481;-82
2022/09/22 13:28:58;;;;;;;1.98;1.55;;;;;;;;;;5039228;28;20417;-81
2022/09/22 13:31:26;;;;;;;4.07;1.98;;;;;;;;;;5041136;28;20817;-82
2022/09/22 13:33:52;;;;;;;4.90;1.90;;;;;;;;;;5044135;28;20413;-81
2022/09/22 13:36:22;;;;;;;2.70;1.70;;;;;;;;;;5045013;28;20436;-81
2022/09/22 13:38:53;;;;;;;4.03;1.87;;;;;;;;;;5047467;28;20425;-82
2022/09/22 13:41:21;;;;;;;3.25;1.50;;;;;;;;;;5046978;28;20847;-82
2022/09/22 13:43:49;;;;;;;3.00;1.60;;;;;;;;;;5042548;28;20827;-81
2022/09/22 13:46:19;;;;;;;3.83;1.77;;;;;;;;;;5045068;28;20421;-82
2022/09/22 13:48:45;;;;;;;5.00;1.48;;;;;;;;;;5045152;28;20780;-81
2022/09/22 13:51:14;;;;;;;5.10;1.50;;;;;;;;;;5045961;28;20438;-82
2022/09/22 13:53:42;;;;;;;4.80;1.40;;;;;;;;;;5046301;28;20431;-84
2022/09/22 13:56:14;;;;;;;4.25;2.10;;;;;;;;;;5043890;28;20433;-81
2022/09/22 13:58:41;;;;;;;4.30;1.60;;;;;;;;;;5046023;28;20424;-82
2022/09/22 14:01:12;;;;;;;4.03;1.40;;;;;;;;;;5046491;28;20434;-83
2022/09/22 14:03:39;;;;;;;3.13;1.30;;;;;;;;;;5046090;28;20421;-83
2022/09/22 14:06:09;;;;;;;4.22;1.70;;;;;;;;;;5045721;28;20444;-82
2022/09/22 14:08:36;;;;;;;3.70;1.90;;;;;;;;;;5049241;28;20425;-82
2022/09/22 14:11:03;;;;;;;5.20;1.92;;;;;;;;;;5047300;28;20529;-83
2022/09/22 14:13:56;;;;;;;5.40;1.83;;;;;;;;;;5047477;28;20986;-82
2022/09/22 14:16:25;;;;;;;5.25;1.50;;;;;;;;;;5046289;28;20436;-82
2022/09/22 14:18:53;;;;;;;4.60;1.80;;;;;;;;;;5047606;28;20425;-83
2022/09/22 14:21:21;;;;;;;5.07;1.63;;;;;;;;;;5048651;28;20503;-83
2022/09/22 14:23:49;;;;;;;5.20;1.75;;;;;;;;;;5048892;28;20467;-83
2022/09/22 14:26:22;;;;;;;6.78;2.33;;;;;;;;;;5047850;28;20434;-81
2022/09/22 14:28:51;;;;;;;4.70;2.10;;;;;;;;;;5046211;28;20417;-81
2022/09/22 14:31:22;;;;;;;4.10;1.70;;;;;;;;;;5046199;28;20453;-82
2022/09/22 14:33:49;;;;;;;4.38;1.40;;;;;;;;;;5044196;28;20417;-82
2022/09/22 14:36:18;;;;;;;4.47;1.60;;;;;;;;;;5045219;28;20446;-81
2022/09/22 14:38:44;;;;;;;5.47;2.13;;;;;;;;;;5045241;28;20426;-82
2022/09/22 14:41:22;;;;;;;4.93;1.75;;;;;;;;;;5043276;28;20819;-82
2022/09/22 14:43:51;;;;;;;3.60;1.63;;;;;;;;;;5045696;28;20903;-81
2022/09/22 14:46:21;;;;;;;3.95;1.63;;;;;;;;;;5044691;28;20907;-82
2022/09/22 14:48:48;;;;;;;3.30;1.60;;;;;;;;;;5044130;28;20413;-81
2022/09/22 14:51:19;;;;;;;3.35;1.70;;;;;;;;;;5046432;28;20442;-81
2022/09/22 14:53:47;;;;;;;4.00;1.85;;;;;;;;;;5043663;28;20417;-81
2022/09/22 14:56:19;;;;;;;4.30;1.90;;;;;;;;;;5045262;28;21134;-80
2022/09/22 14:58:49;;;;;;;4.85;1.77;;;;;;;;;;5045364;28;20421;-81
2022/09/22 15:04:09;;;;;;;6.07;1.90;;;;;;;;;;5042872;28;20780;-82
2022/09/22 15:06:38;;;;;;;3.33;1.45;;;;;;;;;;5043601;28;20440;-82
2022/09/22 15:09:05;;;;;;;3.80;1.50;;;;;;;;;;5045255;28;20444;-83